Time;durP1;ratioP1;P1;durP2;ratioP2;P2;SDS_P1;SDS_P2;PMS_P1;PMS_P2;Temp;Humidity;BMP_temperature;BMP_pressure;BME280_temperature;BME280_humidity;BME280_pressure;Samples;Min_cycle;Max_cycle;Signal;HPM_P1;HPM_P2
2022/04/30 00:01:14;;;;;;;13.40;11.30;;;;;;;9.42;69.28;100823.63;10487922;28;20048;-73
2022/04/30 00:06:16;;;;;;;14.80;11.48;;;;;;;9.54;68.33;100826.94;10505406;28;20493;-74
2022/04/30 00:11:18;;;;;;;11.73;10.52;;;;;;;9.31;68.93;100821.16;10489325;28;20121;-73
2022/04/30 00:16:20;;;;;;;13.73;10.98;;;;;;;9.19;69.64;100824.81;10508263;28;20400;-73
2022/04/30 00:21:21;;;;;;;10.20;9.27;;;;;;;9.29;68.63;100815.03;10504554;28;20044;-73
2022/04/30 00:26:23;;;;;;;10.60;9.60;;;;;;;9.25;68.94;100809.00;10506354;28;20040;-73
2022/04/30 00:31:26;;;;;;;9.70;8.77;;;;;;;9.25;68.15;100815.97;10502900;28;20041;-74
2022/04/30 00:36:28;;;;;;;12.82;10.52;;;;;;;9.42;69.76;100813.97;10504898;28;20048;-74
2022/04/30 00:41:32;;;;;;;10.68;9.73;;;;;;;9.35;70.55;100807.09;10503639;28;20052;-74
2022/04/30 00:46:33;;;;;;;10.95;8.55;;;;;;;9.42;69.37;100805.25;10503745;28;20502;-74
2022/04/30 00:51:38;;;;;;;7.72;6.93;;;;;;;9.46;66.94;100796.44;10504732;28;20043;-74
2022/04/30 00:56:55;;;;;;;8.23;6.78;;;;;;;9.26;67.10;100794.13;10503925;28;20513;-73
2022/04/30 01:01:59;;;;;;;7.82;7.03;;;;;;;9.00;68.20;100784.84;10503010;28;20051;-73
2022/04/30 01:07:20;;;;;;;7.10;6.45;;;;;;;8.87;69.08;100788.53;10488296;28;20048;-73
2022/04/30 01:12:23;;;;;;;7.15;6.47;;;;;;;8.86;68.41;100784.19;10503197;28;20044;-73
2022/04/30 01:17:25;;;;;;;12.98;8.18;;;;;;;8.98;70.28;100783.13;10502549;28;20068;-73
2022/04/30 01:22:31;;;;;;;11.15;8.73;;;;;;;8.80;71.51;100778.97;10502545;28;20094;-73
2022/04/30 01:27:36;;;;;;;8.18;7.38;;;;;;;8.68;71.69;100779.16;10484254;28;20080;-73
2022/04/30 01:37:58;;;;;;;9.80;8.90;;;;;;;8.91;72.11;100771.88;10502480;28;20041;-73
2022/04/30 01:43:01;;;;;;;9.63;8.60;;;;;;;8.89;71.12;100762.28;10484424;28;20048;-73
2022/04/30 01:48:04;;;;;;;11.35;8.35;;;;;;;8.61;71.59;100764.38;10500405;28;20052;-72
2022/04/30 01:53:06;;;;;;;10.13;8.95;;;;;;;8.40;72.08;100761.13;10500883;28;20058;-73
2022/04/30 01:58:08;;;;;;;10.98;9.35;;;;;;;8.27;73.02;100762.97;10501681;28;20040;-74
2022/04/30 02:03:12;;;;;;;9.07;8.15;;;;;;;8.21;73.03;100757.81;10541664;22;20047;-71
2022/04/30 02:08:17;;;;;;;9.10;8.20;;;;;;;8.33;73.03;100751.56;10539413;28;20358;-71
2022/04/30 02:13:23;;;;;;;9.18;8.27;;;;;;;8.30;72.86;100762.09;10539329;28;20416;-71
2022/04/30 02:18:26;;;;;;;11.10;10.02;;;;;;;8.30;72.67;100752.47;10539861;28;20054;-72
2022/04/30 02:23:29;;;;;;;10.38;9.40;;;;;;;8.05;73.40;100740.50;10539666;28;20413;-71
2022/04/30 02:28:30;;;;;;;13.30;7.97;;;;;;;8.07;73.95;100736.13;10539602;28;20052;-72
2022/04/30 02:33:32;;;;;;;11.75;8.90;;;;;;;8.18;73.45;100734.25;10539031;28;20044;-72
2022/04/30 02:38:35;;;;;;;8.38;7.63;;;;;;;8.07;73.96;100729.16;10539350;28;20378;-72
2022/04/30 02:43:38;;;;;;;11.82;8.95;;;;;;;8.02;73.50;100736.19;10538824;28;20044;-72
2022/04/30 02:48:40;;;;;;;9.65;8.65;;;;;;;8.10;73.17;100723.00;10539848;28;20044;-72
2022/04/30 02:53:43;;;;;;;12.13;10.40;;;;;;;8.05;73.67;100727.41;10539282;28;20056;-72
2022/04/30 03:04:04;;;;;;;14.27;10.57;;;;;;;8.05;73.89;100725.66;10540486;28;20447;-72
2022/04/30 03:09:06;;;;;;;17.00;11.43;;;;;;;7.65;76.28;100722.56;10547843;28;20056;-71
2022/04/30 03:14:07;;;;;;;16.85;11.00;;;;;;;7.47;76.76;100720.09;10546963;28;20465;-72
2022/04/30 03:24:31;;;;;;;11.88;9.95;;;;;;;7.81;75.78;100707.59;10546843;28;20036;-72
2022/04/30 03:29:32;;;;;;;13.70;10.95;;;;;;;8.00;74.89;100701.28;10545705;28;20064;-70
2022/04/30 03:34:34;;;;;;;15.73;12.05;;;;;;;7.66;75.72;100695.53;10545749;28;20044;-71
2022/04/30 03:39:35;;;;;;;23.85;12.13;;;;;;;7.43;76.74;100692.22;10545732;28;20044;-71
2022/04/30 03:44:38;;;;;;;20.60;11.35;;;;;;;7.67;76.62;100693.78;10544734;28;20040;-71
2022/04/30 03:49:39;;;;;;;21.23;11.73;;;;;;;7.56;76.18;100699.09;10544335;28;20481;-72
2022/04/30 03:54:41;;;;;;;15.63;11.00;;;;;;;7.50;76.52;100694.78;10544938;28;20480;-72
2022/04/30 03:59:43;;;;;;;18.90;11.80;;;;;;;7.50;76.36;100694.78;10544726;28;20054;-71
2022/04/30 04:04:45;;;;;;;12.15;10.50;;;;;;;7.39;77.71;100696.63;10543710;28;20048;-72
2022/04/30 04:09:47;;;;;;;14.07;9.68;;;;;;;7.40;77.13;100695.75;10543320;28;20043;-72
2022/04/30 04:20:19;;;;;;;12.00;8.50;;;;;;;7.67;75.84;100702.50;10542612;28;20447;-72
2022/04/30 04:30:47;;;;;;;10.05;7.97;;;;;;;7.69;74.97;100713.81;10543400;28;20051;-71
2022/04/30 04:35:48;;;;;;;11.02;7.22;;;;;;;7.85;72.52;100709.31;10542908;28;20040;-71
2022/04/30 04:40:50;;;;;;;10.25;6.32;;;;;;;8.01;70.85;100710.91;10542660;28;20044;-72
2022/04/30 04:45:51;;;;;;;7.43;6.03;;;;;;;8.26;69.49;100721.94;10542240;28;20089;-71
2022/04/30 04:50:53;;;;;;;6.85;6.15;;;;;;;8.42;68.61;100721.81;10542269;28;20071;-72
2022/04/30 04:55:55;;;;;;;6.97;6.28;;;;;;;8.47;68.20;100715.63;10524285;28;20044;-72
2022/04/30 05:00:56;;;;;;;9.35;7.10;;;;;;;8.49;69.15;100716.47;10542161;28;20493;-71
2022/04/30 05:05:58;;;;;;;8.10;7.22;;;;;;;8.54;69.59;100706.81;10542593;28;20502;-71
2022/04/30 05:11:00;;;;;;;9.68;7.93;;;;;;;8.64;68.65;100709.31;10541362;28;20044;-72
2022/04/30 05:16:02;;;;;;;13.80;8.07;;;;;;;8.73;67.05;100704.81;10541923;28;20047;-72
2022/04/30 05:21:03;;;;;;;10.07;7.97;;;;;;;8.86;66.89;100705.53;10523893;28;20425;-72
2022/04/30 05:26:05;;;;;;;7.50;6.50;;;;;;;9.04;66.87;100705.25;10541111;28;20044;-72
2022/04/30 05:31:06;;;;;;;7.55;6.72;;;;;;;9.17;66.56;100703.31;10540329;28;20052;-72
2022/04/30 05:36:08;;;;;;;7.93;6.55;;;;;;;9.06;67.10;100710.47;10540345;28;20036;-71
2022/04/30 05:41:10;;;;;;;11.60;8.18;;;;;;;9.27;65.81;100710.16;10540103;28;20036;-72
2022/04/30 05:46:13;;;;;;;13.25;9.65;;;;;;;9.70;63.17;100717.31;10541114;28;20043;-72
2022/04/30 05:51:15;;;;;;;14.40;10.10;;;;;;;9.77;63.54;100715.44;10540921;28;20036;-72
2022/04/30 05:56:16;;;;;;;17.05;9.70;;;;;;;9.69;63.89;100714.69;10540793;28;20040;-72
2022/04/30 06:01:18;;;;;;;10.27;8.80;;;;;;;9.83;63.56;100707.47;10540287;28;20497;-71
2022/04/30 06:06:20;;;;;;;9.95;8.38;;;;;;;9.97;62.22;100710.72;10541444;28;20465;-72
2022/04/30 06:11:22;;;;;;;14.07;6.75;;;;;;;9.94;62.62;100713.38;10540507;28;20056;-72
2022/04/30 06:16:23;;;;;;;10.30;7.35;;;;;;;10.22;61.62;100711.09;10539162;28;20040;-72
2022/04/30 06:21:25;;;;;;;9.52;6.88;;;;;;;10.61;59.18;100709.44;10538703;28;20052;-71
2022/04/30 06:26:26;;;;;;;6.43;5.70;;;;;;;10.66;58.74;100713.75;10540830;28;20044;-71
2022/04/30 06:31:28;;;;;;;6.38;5.78;;;;;;;10.73;58.86;100716.22;10540537;28;20048;-71
2022/04/30 06:36:30;;;;;;;8.65;6.32;;;;;;;10.78;58.51;100724.88;10521457;28;20508;-72
2022/04/30 06:41:31;;;;;;;6.47;5.90;;;;;;;11.04;57.74;100718.19;10526596;28;20109;-71
2022/04/30 06:46:33;;;;;;;7.20;5.30;;;;;;;11.08;57.98;100717.22;10548361;28;20051;-73
2022/04/30 06:51:35;;;;;;;6.65;5.95;;;;;;;11.24;59.12;100707.16;10529265;28;20054;-71
2022/04/30 07:02:05;;;;;;;6.05;5.45;;;;;;;11.44;56.28;100704.06;10547304;28;20056;-71
2022/04/30 07:07:09;;;;;;;7.10;5.30;;;;;;;11.37;58.51;100712.09;10546732;28;20063;-71
2022/04/30 07:12:13;;;;;;;6.03;5.22;;;;;;;11.91;56.01;100708.16;10528083;28;20074;-71
2022/04/30 07:17:15;;;;;;;5.80;5.30;;;;;;;11.91;55.62;100712.53;10545760;28;20063;-72
2022/04/30 07:22:17;;;;;;;5.95;5.30;;;;;;;12.06;57.08;100712.16;10546393;28;20043;-70
2022/04/30 07:27:21;;;;;;;4.70;4.22;;;;;;;12.33;55.05;100715.78;10547155;28;20090;-76
2022/04/30 07:32:22;;;;;;;5.28;4.78;;;;;;;12.40;54.01;100712.09;10546781;28;20105;-76
2022/04/30 07:37:24;;;;;;;6.57;4.75;;;;;;;12.68;52.99;100713.91;10547848;28;20405;-76
2022/04/30 07:42:25;;;;;;;4.88;4.40;;;;;;;12.75;53.52;100721.63;10547965;28;20503;-76
2022/04/30 07:47:27;;;;;;;5.30;4.53;;;;;;;12.97;53.49;100731.50;10547968;28;20142;-76
2022/04/30 07:52:28;;;;;;;6.05;4.57;;;;;;;12.70;51.94;100736.69;10529046;28;20154;-76
2022/04/30 07:57:32;;;;;;;6.15;4.10;;;;;;;12.79;52.83;100735.56;10549743;28;20036;-76
2022/04/30 08:02:34;;;;;;;4.78;4.38;;;;;;;12.92;53.79;100736.06;10540889;22;20571;-68
2022/04/30 08:07:36;;;;;;;5.53;4.90;;;;;;;13.20;52.88;100746.66;10544470;28;20089;-69
2022/04/30 08:12:37;;;;;;;5.85;5.28;;;;;;;13.78;50.07;100736.88;10543790;28;20040;-68
2022/04/30 08:17:39;;;;;;;5.63;5.07;;;;;;;13.93;51.51;100749.53;10525741;28;20554;-69
2022/04/30 08:22:40;;;;;;;5.00;4.60;;;;;;;13.94;49.77;100745.13;10543560;28;20089;-69
2022/04/30 08:27:42;;;;;;;6.63;4.88;;;;;;;14.07;50.75;100723.50;10543618;28;20044;-69
2022/04/30 08:32:44;;;;;;;5.45;4.88;;;;;;;14.60;47.42;100715.41;10525611;28;20131;-69
2022/04/30 08:37:46;;;;;;;10.77;5.63;;;;;;;14.56;48.55;100726.16;10543709;28;20078;-69
2022/04/30 08:42:47;;;;;;;6.15;5.55;;;;;;;15.11;46.32;100737.31;10543430;28;20070;-68
2022/04/30 08:47:50;;;;;;;5.55;5.00;;;;;;;15.47;45.18;100712.91;10543368;28;20044;-69
2022/04/30 08:52:53;;;;;;;6.90;5.53;;;;;;;15.84;43.88;100717.56;10542517;28;20462;-68
2022/04/30 08:57:54;;;;;;;7.30;5.57;;;;;;;15.74;43.54;100718.88;10523448;28;20477;-67
2022/04/30 09:02:58;;;;;;;9.43;5.68;;;;;;;15.86;43.38;100711.28;10541086;28;20416;-69
2022/04/30 09:08:00;;;;;;;6.63;6.03;;;;;;;16.29;44.22;100703.22;10541400;28;20386;-69
2022/04/30 09:13:14;;;;;;;6.90;6.30;;;;;;;16.51;44.03;100711.97;10541932;28;20485;-68
2022/04/30 09:18:17;;;;;;;6.80;5.78;;;;;;;16.35;43.36;100702.97;10515283;28;20476;-68
2022/04/30 09:23:32;;;;;;;8.07;5.57;;;;;;;16.17;42.88;100698.47;10526111;28;20072;-69
2022/04/30 09:28:38;;;;;;;7.55;5.05;;;;;;;16.62;43.57;100704.34;10520368;28;20044;-69
2022/04/30 09:33:49;;;;;;;6.60;5.97;;;;;;;16.57;40.65;100697.53;10523178;28;20059;-69
2022/04/30 09:38:52;;;;;;;6.28;5.75;;;;;;;16.84;40.83;100695.44;10541534;28;20047;-69
2022/04/30 09:44:05;;;;;;;6.70;6.20;;;;;;;16.72;40.72;100694.19;10541655;28;20559;-67
2022/04/30 09:54:30;;;;;;;12.13;6.80;;;;;;;17.06;40.80;100690.81;10518401;28;20207;-68
2022/04/30 09:59:34;;;;;;;6.45;5.80;;;;;;;16.99;40.72;100683.19;10498356;28;20028;-68
2022/04/30 10:04:36;;;;;;;6.03;5.53;;;;;;;17.68;41.13;100682.47;10499150;28;20059;-68
2022/04/30 10:09:43;;;;;;;11.75;5.13;;;;;;;18.03;38.13;100678.03;10498361;28;20082;-68
2022/04/30 10:15:22;;;;;;;6.07;5.15;;;;;;;18.17;37.82;100672.81;10482498;28;20044;-68
2022/04/30 10:20:32;;;;;;;7.55;6.00;;;;;;;18.65;38.63;100663.13;10506421;28;20055;-68
2022/04/30 10:25:41;;;;;;;9.32;7.00;;;;;;;19.10;39.05;100654.38;10515196;28;20048;-69
2022/04/30 10:30:45;;;;;;;7.03;5.60;;;;;;;19.12;39.29;100649.84;10548985;28;20412;-69
2022/04/30 10:35:47;;;;;;;6.57;5.90;;;;;;;19.15;39.20;100646.97;10549171;28;20442;-69
2022/04/30 10:40:50;;;;;;;6.50;5.90;;;;;;;19.24;39.05;100642.06;10548307;28;20044;-69
2022/04/30 10:45:56;;;;;;;;;;;;;;;18.57;38.24;100650.22;10549444;28;20044;-68
2022/04/30 10:51:09;;;;;;;6.95;6.38;;;;;;;18.73;38.91;100642.28;10548489;28;19927;-69
2022/04/30 10:56:12;;;;;;;7.10;6.38;;;;;;;18.53;39.45;100639.84;10548051;28;20040;-69
2022/04/30 11:01:18;;;;;;;7.68;6.97;;;;;;;19.26;36.33;100635.72;10548905;28;20051;-69
2022/04/30 11:06:22;;;;;;;8.75;6.30;;;;;;;19.07;38.57;100635.88;10547997;28;20485;-69
2022/04/30 11:11:24;;;;;;;7.35;6.50;;;;;;;19.69;36.29;100616.31;10547164;28;20047;-69
2022/04/30 11:16:41;;;;;;;5.80;5.20;;;;;;;19.99;36.96;100605.59;10548461;28;20097;-69
2022/04/30 11:21:47;;;;;;;6.35;5.70;;;;;;;19.98;36.29;100606.56;10547644;28;20101;-70
2022/04/30 11:26:52;;;;;;;;;;;;;;;19.72;35.88;100605.47;10529513;28;20044;-70
2022/04/30 11:31:55;;;;;;;6.45;5.88;;;;;;;19.55;38.52;100603.78;10547119;28;19920;-70
2022/04/30 11:36:59;;;;;;;5.68;5.18;;;;;;;19.94;35.91;100599.69;10546562;28;20040;-70
2022/04/30 11:42:01;;;;;;;6.70;6.10;;;;;;;19.74;37.71;100587.56;10528153;28;20044;-70
2022/04/30 11:47:06;;;;;;;7.90;5.40;;;;;;;19.60;36.93;100588.38;10546576;28;20059;-70
2022/04/30 11:52:08;;;;;;;10.02;6.00;;;;;;;19.08;36.93;100579.00;10545895;28;20401;-70
2022/04/30 11:57:14;;;;;;;5.85;5.30;;;;;;;18.80;37.42;100581.53;10544827;28;20059;-70
2022/04/30 12:02:16;;;;;;;5.63;5.20;;;;;;;19.01;36.62;100571.47;10544061;28;20048;-70
2022/04/30 12:07:18;;;;;;;8.20;4.20;;;;;;;19.70;35.08;100567.34;10543479;28;20040;-70
2022/04/30 12:12:21;;;;;;;6.22;5.00;;;;;;;19.76;34.99;100564.34;10543120;28;20097;-69
2022/04/30 12:17:32;;;;;;;7.03;4.03;;;;;;;19.63;33.08;100558.88;10542874;28;20044;-69
2022/04/30 12:27:59;;;;;;;8.48;4.35;;;;;;;19.15;35.30;100545.72;10543190;28;20052;-70
2022/04/30 12:33:16;;;;;;;4.85;4.45;;;;;;;19.74;34.08;100543.06;10542895;28;20040;-70
2022/04/30 12:38:18;;;;;;;4.60;4.20;;;;;;;19.76;34.06;100535.00;10542630;28;20085;-70
2022/04/30 12:43:20;;;;;;;4.35;3.33;;;;;;;20.25;32.35;100522.06;10544487;28;20382;-70
2022/04/30 12:48:21;;;;;;;5.72;5.22;;;;;;;20.25;33.29;100522.06;10543278;28;20470;-70
2022/04/30 12:53:23;;;;;;;6.22;4.03;;;;;;;19.90;32.09;100513.63;10542627;28;20052;-71
2022/04/30 12:58:25;;;;;;;5.03;4.50;;;;;;;19.93;33.86;100517.94;10543849;28;20052;-71
2022/04/30 13:03:28;;;;;;;6.88;6.30;;;;;;;19.90;36.39;100513.63;10542086;28;20086;-71
2022/04/30 13:13:31;;;;;;;6.00;5.40;;;;;;;19.76;35.54;100501.16;10542004;28;20051;-71
2022/04/30 13:13:51;;;;;;;7.90;7.18;;;;;;;20.50;34.10;100493.81;10523927;28;20062;-71
2022/04/30 13:18:53;;;;;;;5.40;4.85;;;;;;;20.63;34.66;100492.06;10541389;28;20404;-71
2022/04/30 13:23:54;;;;;;;5.75;4.43;;;;;;;20.83;35.78;100496.91;10523293;28;20048;-70
2022/04/30 13:28:56;;;;;;;5.63;4.63;;;;;;;20.28;33.92;100483.66;10541882;28;20165;-70
2022/04/30 13:33:59;;;;;;;5.10;4.63;;;;;;;19.71;35.84;100473.06;10542197;28;20105;-70
2022/04/30 13:39:01;;;;;;;7.82;4.80;;;;;;;19.56;35.15;100478.34;10541282;28;20093;-70
2022/04/30 13:44:03;;;;;;;5.65;5.07;;;;;;;19.15;35.63;100484.41;10541213;28;20044;-70
2022/04/30 13:49:04;;;;;;;5.30;4.57;;;;;;;18.85;37.85;100476.44;10541122;28;20044;-70
2022/04/30 13:54:06;;;;;;;5.57;3.80;;;;;;;18.73;36.96;100471.84;10541202;28;20624;-69
2022/04/30 13:59:07;;;;;;;3.78;3.47;;;;;;;18.89;35.90;100474.47;10540728;28;20440;-70
2022/04/30 14:04:09;;;;;;;3.97;3.33;;;;;;;19.06;35.80;100463.66;10553086;22;20044;-71
2022/04/30 14:09:11;;;;;;;4.75;3.05;;;;;;;19.20;35.73;100461.97;10540451;28;20067;-72
2022/04/30 14:19:33;;;;;;;6.18;3.10;;;;;;;19.15;34.37;100460.44;10541131;28;20040;-72
2022/04/30 14:24:34;;;;;;;3.88;3.15;;;;;;;19.32;35.05;100450.56;10539921;28;20093;-71
2022/04/30 14:29:37;;;;;;;5.93;5.00;;;;;;;19.28;34.74;100457.03;10539802;28;20454;-72
2022/04/30 14:34:42;;;;;;;3.20;2.88;;;;;;;19.40;34.87;100448.28;10507683;28;20059;-72
2022/04/30 14:39:44;;;;;;;4.00;2.85;;;;;;;19.21;34.58;100445.00;10540540;28;20048;-71
2022/04/30 14:44:47;;;;;;;2.88;2.47;;;;;;;19.29;34.15;100448.06;10540518;28;20043;-71
2022/04/30 14:49:49;;;;;;;3.55;3.03;;;;;;;19.07;33.37;100440.53;10539917;28;20044;-73
2022/04/30 14:54:52;;;;;;;5.65;2.55;;;;;;;18.95;34.59;100439.47;10524522;28;20106;-72
2022/04/30 14:59:53;;;;;;;3.83;3.10;;;;;;;18.75;34.37;100437.13;10541255;28;20044;-73
2022/04/30 15:04:55;;;;;;;2.85;2.30;;;;;;;18.95;33.60;100439.47;10549481;28;20044;-72
2022/04/30 15:09:57;;;;;;;3.40;3.10;;;;;;;19.13;33.93;100442.84;10550080;28;20089;-71
2022/04/30 15:14:59;;;;;;;2.58;2.38;;;;;;;18.98;33.08;100435.75;10528829;28;20058;-72
2022/04/30 15:20:02;;;;;;;2.80;2.00;;;;;;;18.63;34.16;100436.88;10528207;28;20047;-71
2022/04/30 15:25:04;;;;;;;4.13;2.28;;;;;;;18.98;34.03;100427.75;10547490;28;20051;-70
2022/04/30 15:30:07;;;;;;;4.57;2.55;;;;;;;18.69;33.43;100426.81;10528546;28;20076;-72
2022/04/30 15:35:09;;;;;;;3.20;2.85;;;;;;;18.96;32.73;100425.22;10546046;28;20055;-72
2022/04/30 15:40:11;;;;;;;3.92;2.63;;;;;;;18.72;35.31;100418.66;10546241;28;20044;-72
2022/04/30 15:45:13;;;;;;;4.40;2.20;;;;;;;19.01;33.47;100416.94;10550589;28;20051;-71
2022/04/30 15:55:40;;;;;;;13.20;3.05;;;;;;;18.90;33.78;100417.56;10549523;28;20412;-72
2022/04/30 16:00:42;;;;;;;3.78;2.55;;;;;;;18.85;33.98;100417.00;10529894;28;20047;-71
2022/04/30 16:05:44;;;;;;;4.85;2.75;;;;;;;18.65;34.51;100413.69;10549563;28;20052;-72
2022/04/30 16:10:46;;;;;;;7.50;3.35;;;;;;;18.39;35.22;100415.22;10529539;28;20465;-74
2022/04/30 16:15:48;;;;;;;14.82;3.60;;;;;;;18.41;35.42;100409.78;10545576;28;20032;-73
2022/04/30 16:20:49;;;;;;;4.10;3.08;;;;;;;18.21;35.66;100402.13;10546764;28;20098;-73
2022/04/30 16:25:52;;;;;;;4.55;2.47;;;;;;;18.05;36.16;100404.78;10545051;28;20052;-73
2022/04/30 16:30:53;;;;;;;2.72;2.53;;;;;;;18.10;36.05;100405.38;10543107;28;20481;-74
2022/04/30 16:35:56;;;;;;;3.08;2.38;;;;;;;18.13;36.01;100402.56;10545301;28;20052;-73
2022/04/30 16:40:59;;;;;;;4.80;3.05;;;;;;;18.04;36.15;100401.28;10524180;28;20093;-73
2022/04/30 16:46:01;;;;;;;3.45;2.60;;;;;;;18.02;36.13;100389.88;10540042;28;20052;-72
2022/04/30 17:02:06;;;;;;;3.78;2.80;;;;;;;17.63;36.78;100399.09;10539421;28;20109;-72
2022/04/30 17:07:16;;;;;;;3.53;2.63;;;;;;;17.66;37.01;100400.72;10542774;28;20124;-73
2022/04/30 17:12:18;;;;;;;3.45;3.15;;;;;;;17.46;38.05;100399.16;10543141;28;20039;-73
2022/04/30 17:17:22;;;;;;;4.97;4.15;;;;;;;17.34;38.44;100407.78;10541985;28;20485;-73
2022/04/30 17:22:24;;;;;;;5.93;4.30;;;;;;;17.37;37.94;100411.16;10541194;28;20040;-73
2022/04/30 17:27:27;;;;;;;4.90;4.32;;;;;;;17.40;38.15;100416.31;10523243;28;20036;-73
2022/04/30 17:37:58;;;;;;;5.28;3.83;;;;;;;17.14;38.75;100412.38;10541530;28;20075;-73
2022/04/30 17:43:00;;;;;;;4.47;3.45;;;;;;;16.85;39.37;100419.19;10541065;28;20048;-74
2022/04/30 17:48:02;;;;;;;5.03;4.53;;;;;;;16.85;39.78;100416.53;10541278;28;20123;-74
2022/04/30 17:53:04;;;;;;;6.85;6.18;;;;;;;16.77;39.79;100412.56;10542184;28;20093;-74
2022/04/30 17:58:05;;;;;;;6.10;5.22;;;;;;;16.88;39.84;100420.84;10541655;28;20070;-73
2022/04/30 18:03:07;;;;;;;5.90;5.32;;;;;;;16.59;40.50;100419.66;10541436;28;20044;-73
2022/04/30 18:08:10;;;;;;;6.38;5.57;;;;;;;16.45;40.71;100428.28;10540561;28;20040;-75
2022/04/30 18:13:13;;;;;;;10.32;6.10;;;;;;;16.36;40.94;100426.09;10540550;28;20052;-74
2022/04/30 18:18:15;;;;;;;6.65;6.03;;;;;;;16.39;40.75;100433.91;10541292;28;20044;-72
2022/04/30 18:23:18;;;;;;;8.02;6.57;;;;;;;16.17;41.64;100441.22;10540591;28;20141;-74
2022/04/30 18:28:20;;;;;;;7.70;7.10;;;;;;;16.07;41.45;100441.66;10539433;28;20134;-71
2022/04/30 18:33:22;;;;;;;15.55;14.30;;;;;;;16.04;41.55;100451.53;10540006;28;20044;-72
2022/04/30 18:38:24;;;;;;;20.25;18.65;;;;;;;15.63;42.89;100456.97;10543930;28;20044;-73
2022/04/30 18:43:26;;;;;;;13.07;12.07;;;;;;;15.37;44.02;100460.78;10546330;28;20398;-72
2022/04/30 18:48:27;;;;;;;10.20;9.30;;;;;;;15.27;48.38;100457.69;10545879;28;20418;-72
2022/04/30 18:53:29;;;;;;;10.07;9.07;;;;;;;14.98;49.77;100472.19;10529432;28;20106;-72
2022/04/30 19:03:52;;;;;;;10.05;9.00;;;;;;;14.51;53.02;100479.47;10547937;28;20052;-73
2022/04/30 19:08:53;;;;;;;10.30;9.30;;;;;;;14.33;52.98;100481.03;10547260;28;20127;-73
2022/04/30 19:13:56;;;;;;;15.45;12.43;;;;;;;14.43;51.16;100485.03;10529225;28;20089;-72
2022/04/30 19:18:58;;;;;;;13.30;12.07;;;;;;;13.98;52.81;100485.94;10548590;28;20044;-72
2022/04/30 19:23:59;;;;;;;12.95;11.75;;;;;;;14.02;52.10;100487.53;10547515;28;20493;-72
2022/04/30 19:29:02;;;;;;;13.63;12.18;;;;;;;13.58;54.14;100490.06;10546247;28;20093;-72
2022/04/30 19:34:03;;;;;;;14.60;13.35;;;;;;;13.47;54.65;100500.19;10528521;28;20536;-73
2022/04/30 19:39:05;;;;;;;17.20;14.98;;;;;;;13.30;56.00;100494.66;10546775;28;20061;-72
2022/04/30 19:44:07;;;;;;;19.63;17.85;;;;;;;13.29;56.38;100490.28;10546374;28;20048;-73
2022/04/30 19:49:09;;;;;;;27.30;19.50;;;;;;;13.04;56.98;100488.47;10545753;28;20058;-72
2022/04/30 19:54:11;;;;;;;23.73;19.70;;;;;;;12.94;57.96;100491.50;10546695;28;20074;-73
2022/04/30 19:59:13;;;;;;;22.83;20.52;;;;;;;12.75;58.47;100492.13;10545734;28;20070;-73
2022/04/30 20:04:15;;;;;;;22.50;19.88;;;;;;;12.62;58.69;100494.28;10560155;22;20048;-69
2022/04/30 20:09:17;;;;;;;26.02;23.83;;;;;;;12.60;58.74;100490.81;10546469;28;20037;-70
2022/04/30 20:19:39;;;;;;;21.92;19.95;;;;;;;12.29;60.08;100490.94;10545872;28;20090;-70
2022/04/30 20:24:43;;;;;;;23.63;21.63;;;;;;;12.19;60.63;100492.16;10545001;28;20094;-70
2022/04/30 20:29:45;;;;;;;23.88;21.63;;;;;;;12.06;60.85;100494.31;10544337;28;20040;-70
2022/04/30 20:40:14;;;;;;;36.60;30.35;;;;;;;11.78;62.96;100515.31;10544669;28;20048;-71
2022/04/30 20:45:16;;;;;;;29.95;26.85;;;;;;;11.96;62.09;100516.56;10546064;28;20044;-70
2022/04/30 20:50:17;;;;;;;31.25;28.13;;;;;;;11.61;62.94;100513.16;10510192;28;20051;-70
2022/04/30 20:55:20;;;;;;;30.52;27.38;;;;;;;11.41;64.08;100520.75;10544201;28;20043;-70
2022/04/30 21:00:24;;;;;;;33.65;29.48;;;;;;;11.43;64.21;100516.31;10525128;28;20393;-71
2022/04/30 21:05:26;;;;;;;37.13;28.02;;;;;;;11.16;65.41;100524.94;10543728;28;20048;-72
2022/04/30 21:10:28;;;;;;;43.60;30.27;;;;;;;11.43;65.22;100515.44;10543170;28;20047;-71
2022/04/30 21:15:29;;;;;;;32.72;29.00;;;;;;;11.30;64.86;100518.41;10543303;28;20405;-71
2022/04/30 21:20:31;;;;;;;33.13;29.67;;;;;;;10.96;65.92;100518.44;10542474;28;20105;-70
2022/04/30 21:25:33;;;;;;;32.58;28.88;;;;;;;10.75;66.41;100517.19;10543359;28;20055;-71
2022/04/30 21:30:36;;;;;;;31.88;28.63;;;;;;;10.53;67.50;100526.50;10543732;28;20048;-70
2022/04/30 21:35:38;;;;;;;34.10;30.92;;;;;;;10.34;68.92;100524.31;10524230;28;20501;-70
2022/04/30 21:46:02;;;;;;;38.10;30.42;;;;;;;10.67;67.72;100508.66;10542182;28;20052;-70
2022/04/30 21:51:04;;;;;;;32.13;28.83;;;;;;;10.44;68.06;100516.22;10541487;28;20048;-69
2022/04/30 22:01:29;;;;;;;30.63;27.33;;;;;;;10.11;69.11;100521.31;10542201;28;20032;-70
2022/04/30 22:06:31;;;;;;;30.05;26.80;;;;;;;10.01;69.98;100523.28;10543929;28;20048;-71
2022/04/30 22:11:32;;;;;;;27.38;24.75;;;;;;;10.00;70.37;100520.66;10524114;28;20539;-70
2022/04/30 22:16:35;;;;;;;26.10;23.35;;;;;;;9.90;69.61;100512.13;10541966;28;20089;-70
2022/04/30 22:21:38;;;;;;;25.25;23.15;;;;;;;9.86;69.34;100515.72;10541071;28;20047;-71
2022/04/30 22:26:41;;;;;;;23.00;21.20;;;;;;;9.57;70.98;100519.81;10540850;28;20412;-71
2022/04/30 22:31:43;;;;;;;27.50;22.00;;;;;;;9.73;70.48;100511.59;10541557;28;20051;-70
2022/04/30 22:36:45;;;;;;;23.40;21.58;;;;;;;9.37;72.29;100521.94;10541349;28;20040;-70
2022/04/30 22:47:06;;;;;;;22.60;20.70;;;;;;;9.76;69.74;100508.94;10541053;28;20082;-70
2022/04/30 22:52:08;;;;;;;22.75;20.52;;;;;;;9.41;70.66;100513.13;10541125;28;20490;-70
2022/04/30 22:57:10;;;;;;;20.08;18.60;;;;;;;9.21;71.89;100520.50;10540716;28;20044;-69
2022/04/30 23:02:11;;;;;;;20.63;18.65;;;;;;;9.45;69.89;100517.41;10540574;28;20063;-70
2022/04/30 23:07:13;;;;;;;20.17;18.42;;;;;;;9.31;70.50;100522.06;10542699;28;20051;-70
2022/04/30 23:12:17;;;;;;;20.80;18.80;;;;;;;8.92;71.86;100518.41;10523301;28;20102;-70
2022/04/30 23:17:19;;;;;;;21.42;19.33;;;;;;;8.81;72.40;100510.75;10522461;28;20055;-70
2022/04/30 23:22:21;;;;;;;22.20;20.15;;;;;;;8.68;73.14;100510.06;10543169;28;20469;-70
2022/04/30 23:27:25;;;;;;;22.40;20.17;;;;;;;8.63;74.26;100514.50;10547737;28;20048;-70
2022/04/30 23:32:27;;;;;;;21.40;19.73;;;;;;;8.52;74.63;100522.53;10547594;28;20046;-71
2022/04/30 23:37:28;;;;;;;20.10;18.60;;;;;;;8.58;74.74;100524.19;10528704;28;20040;-70
2022/04/30 23:42:30;;;;;;;19.35;17.95;;;;;;;8.73;74.12;100525.72;10546851;28;20048;-70
2022/04/30 23:47:31;;;;;;;24.88;20.65;;;;;;;8.84;72.86;100523.78;10547920;28;20512;-70
2022/04/30 23:52:34;;;;;;;23.73;21.63;;;;;;;8.54;73.17;100517.25;10546464;28;20056;-70
2022/04/30 23:57:37;;;;;;;45.60;21.90;;;;;;;8.17;74.83;100516.94;10547788;28;20044;-70
